Ride Results

Waterloo Community Cup (24-02-2018)
Ride distance: 80.0 km

Outcomes - Waterloo Community Cup (24-02-2018)
Division No. of Entries Retired / DNE Completed Withdrawn Ineligible V/O Percentage Completed
HW 6 - 6 - - - 100.00%
MW 21 - 18 1 - 2 85.71%
LW 16 - 16 - - - 100.00%
JN 5 - 4 - - 1 80.00%
Totals 48 - 44 1 - 3 91.67%
Results - Waterloo Community Cup (24-02-2018)
No. Rider Horse Place Time Leg Speeds Total
Km/Hr
H/R bpm
Heavyweight
18 Ken Bradley Littlebanks Magic Wings 1 (BC) 6:14:00 14.1, 11.7 12.83 37, 52, 55 (Avg:53)
762 Shanna Milne Telly-O 2 6:52:00 11.8, 11.4 11.65 52, 54, 43 (Avg:48)
761 Rob West Cedarwood Lodge Red Diamond 3 7:09:00 11.4, 10.9 11.19 32, 48, 53 (Avg:50)
329 Carly Loughnan Aldersyde Ambrosia 4 7:12:00 11.4, 10.8 11.11 32, 44, 47 (Avg:45)
199 Peter Farrell The Grove Sariq 5 7:43:00 11.7, 9.2 10.37 37, 47, 49 (Avg:48)
764 Kerrie Gabb Capleach Mutineer 6 8:18:00 10.1, 9.1 9.64 32, 37, 54 (Avg:45)
Middleweight
192 Tabitha Shmetzer Eminem Phairow 1 (BC) 5:05:00 17.0, 14.6 15.74 39, 48, 48 (Avg:48)
244 Marty Bryson Castlebar Shatan 2 5:17:00 15.5, 14.7 15.14 43, 45, 48 (Avg:46)
315 Matt Milne Yaraandoo Myee-Jarrah 3 5:24:00 14.9, 14.6 14.81 37, 43, 53 (Avg:48)
126 Wendy Riha Castlebar Chivas 4 5:42:00 14.1, 13.9 14.04 33, 43, 45 (Avg:44)
233 Paul Bryson Willy 5 5:50:00 15.5, 12.2 13.71 38, 48, 54 (Avg:51)
799 Amelia Napier Oso Evita 6 6:09:00 13.7, 12.3 13.01 42, 48, 55 (Avg:51)
775 Talia Bognar Halimas Andronicus 7 6:27:00 14.1, 11.0 12.40 37, 50, 54 (Avg:52)
770 Rebecca Ford Trapper 8 6:52:00 11.8, 11.4 11.65 39, 48, 47 (Avg:47)
291 Kerryn Agnew Performance Park Menphis Rain 9 6:55:00 11.5, 11.5 11.57 50, 48, 49 (Avg:48)
796 Sharyn Coulston Castlebar Thunder 9 6:55:00 11.4, 11.7 11.57 34, 44, 45 (Avg:44)
13 Linda Tanian Castlebar Cougar 9 6:55:00 11.4, 11.7 11.57 25, 38, 43 (Avg:40)
765 Tayla Hadzi Oso Florin 12 7:10:00 11.4, 10.9 11.16 32, 45, 44 (Avg:44)
351 Amy Bellhouse Musical Gully Comedia 13 7:40:00 10.7, 10.1 10.43 42, 43, 51 (Avg:47)
797 Alycia Dawson Oso Lu Lu 13 7:40:00 11.2, 9.7 10.43 36, 45, 49 (Avg:47)
131 Simon Thomas Rocky Point Black Sardonyx 15 7:59:00 10.0, 9.9 10.02 35, 49, 50 (Avg:49)
23 Brittnee D'Hondt Timbertop Golden Fantasy 16 8:17:00 10.1, 9.2 9.66 36, 43, 60 (Avg:51)
70 Jil Bourton Silveron Moonkat 17 8:28:00 9.8, 9.0 9.45 44, 47, 47 (Avg:47)
117 Tammy Nisbet Glenelen Park Sophina 18 8:59:00 9.3, 8.5 8.91 36, 52, 53 (Avg:52)
798 Grace Huxtable Oso Solstice Star Lame L2 0:00:00 11.2, 9.7 - 46, 49, 48 (Avg:48)
42 Hans Peuker Marybank Celia Withdrawn L1 0:00:00 - - 31, 41 (Avg:41)
309 Robyn Player Breakaway Image of Marwan Heart Rate L1 0:00:00 11.4 - 34, 64 (Avg:64)
Lightweight
321 Renee Henry Cadenza Supernatural 1 5:50:00 14.1, 13.3 13.71 31, 46, 49 (Avg:47)
774 Sorsha Stuart-Rokvic Oso Ellazandra 2 (BC) 5:53:00 13.7, 13.4 13.60 34, 47, 48 (Avg:47)
318 Rebecca Williamson Cougar Swan Chiron 3 6:01:00 14.1, 12.5 13.30 35, 49, 52 (Avg:50)
22 Sarah McLaughlin Tonki Dee Boo Shania 4 6:13:00 13.1, 12.6 12.87 32, 44, 48 (Avg:46)
183 Nicky Robinson Sterling Soldier 4 6:13:00 13.1, 12.6 12.87 40, 43, 52 (Avg:47)
776 Emma Collins Brieema Zeal 6 6:48:00 12.9, 10.8 11.76 41, 50, 49 (Avg:49)
760 Tiffany Milne Ben 7 6:52:00 11.8, 11.4 11.65 38, 43, 48 (Avg:45)
91 Kim Noble Springridge Phoenix 8 6:56:00 11.9, 11.1 11.54 29, 42, 52 (Avg:47)
763 Emily Pinnuck Oso Diamond Dazzler 9 7:10:00 11.4, 10.9 11.16 52, 44, 50 (Avg:47)
771 Tracy-Lee Feltrin Future Dream Bella 10 7:17:00 11.5, 10.4 10.98 40, 49, 57 (Avg:53)
278 Gina Thompson Echo Jamaal 11 7:40:00 10.7, 10.1 10.43 39, 43, 45 (Avg:44)
151 Kasey Thomas Rocky Point Sands of Cymophane 12 7:59:00 10.0, 9.9 10.02 35, 43, 58 (Avg:50)
301 Jasmine Venezia Forest Dale Look No Further 13 8:28:00 9.8, 9.0 9.45 35, 48, 44 (Avg:46)
17 Sallyann Duke Aloha Ramilez 14 8:30:00 10.2, 8.7 9.41 36, 41, 55 (Avg:48)
3 Caley Rees El Sancaar Anseesah 14 8:30:00 10.2, 8.7 9.41 44, 54, 52 (Avg:53)
317 Nicole Porter Mydadjumpedefence 16 8:59:00 9.3, 8.5 8.91 52, 50, 51 (Avg:50)
Junior
288 Daisy Bryson Accelerate 1 (BC) 5:17:00 15.5, 14.7 15.14 40, 47, 48 (Avg:47)
292 Alison Noble Warrawee Naaziq 2 6:56:00 11.9, 11.1 11.54 42, 47, 52 (Avg:49)
766 Hannah Cossor Apex Ambition 3 7:17:00 11.5, 10.4 10.98 37, 42, 51 (Avg:46)
289 Sophie Hart Yandilla Ultimate Affair 4 7:40:00 10.7, 10.1 10.43 41, 45, 48 (Avg:46)
769 Cassidy Worden Zintahn Odysseus Lame L1 0:00:00 14.1 - 32, 46 (Avg:46)